• Join FlightAware (Why Join?)
  • Login
  • US Flag 
11:25AM EDT


 

Airport Tracker/Info


-or-


 

Live Flight TrackerFlight Track Log ✈ SWA565 ✈ 14-Apr-2013 ✈ KLAS - KSFO

Flight Track Log - Related Links

Times and Time Zones

All times are in EDT time to prevent confusion due to time zone crossing. See the SWA565 flight status page for this flight to view local times or setup timezone preferences in your user account.

Time Position Orientation Groundspeed Altitude Reporting Facility
EDT Latitude Longitude Course Direction KTS MPH feet Rate Location/Type
01:58AM 36.0775 -115.1650 310° West 154 177 3,300  Level Los Angeles Center
01:59AM 36.0781 -115.1711 276° West 144 166 3,500 1,740 Climbing Los Angeles Center
02:00AM 36.0731 -115.2431 265° West 207 238 5,600 1,920 Climbing Los Angeles Center
02:01AM 35.8834 -115.8221 270° West  Level FlightAware Approximate
02:01AM 36.0067 -115.2825 206° Southwest 260 299 7,500  Level Los Angeles Center
02:02AM 35.8834 -115.9445 270° West  Level FlightAware Approximate
02:02AM 35.9319 -115.3156 200° South 272 313 10,700  Level Los Angeles Center
02:03AM 35.9465 -116.0298 321° Northwest  Level FlightAware Approximate
02:03AM 35.8389 -115.3597 201° Southwest 321 369 13,100  Level Los Angeles Center
02:04AM 36.0193 -116.1123 310° West  Level FlightAware Approximate
02:04AM 35.7689 -115.4500 226° Southwest 359 413 16,700  Level Los Angeles Center
02:05AM 35.7919 -115.5811 282° West 353 406 20,100 3,000 Climbing Los Angeles Center
02:06AM 35.8253 -115.7086 288° West 362 417 22,800 2,460 Climbing Los Angeles Center
02:07AM 35.8603 -115.8356 289° West 382 440 25,200 2,160 Climbing Los Angeles Center
02:08AM 35.8892 -115.9467 288° West 389 448 27,200 1,740 Climbing Los Angeles Center
02:09AM 35.9486 -116.0300 311° West 404 465 28,800 2,160 Climbing Los Angeles Center
02:10AM 36.0569 -116.1564 317° Northwest 418 481 31,700 2,340 Climbing Los Angeles Center
02:11AM 36.1331 -116.2425 318° Northwest 408 470 33,600 1,800 Climbing Los Angeles Center
02:12AM 36.2131 -116.3356 317° Northwest 400 460 35,400 1,860 Climbing Los Angeles Center
02:13AM 36.3083 -116.4458 317° Northwest 394 453 37,400 1,260 Climbing Los Angeles Center
02:14AM 36.3875 -116.5378 317° Northwest 392 451 38,000 240 Climbing Los Angeles Center
02:15AM 36.4664 -116.6294 317° Northwest 391 450 38,000  Level Los Angeles Center
02:16AM 36.5375 -116.7147 316° Northwest 392 451 38,000  Level Los Angeles Center
02:17AM 36.6244 -116.7964 323° Northwest 394 453 38,000  Level Los Angeles Center
02:18AM 36.7194 -116.8653 330° Northwest 397 457 38,000  Level Los Angeles Center
02:19AM 36.8303 -116.9494 329° Northwest 391 450 38,000  Level Los Angeles Center
02:20AM 36.9211 -117.0194 328° Northwest 385 443 38,000  Level Los Angeles Center
02:21AM 37.0136 -117.0906 328° Northwest 387 445 38,000  Level Los Angeles Center
02:22AM 37.1081 -117.1608 329° Northwest 395 455 38,000  Level Los Angeles Center
02:23AM 37.1964 -117.2336 327° Northwest 383 441 38,000  Level Oakland Center
02:24AM 37.2856 -117.3028 328° Northwest 377 434 38,000 -60 Level Oakland Center
02:25AM 37.3794 -117.3642 333° Northwest 382 440 37,900 -600 Descending Oakland Center
02:26AM 37.4519 -117.4431 319° Northwest 352 405 36,900 -1,020 Descending Oakland Center
02:27AM 37.4617 -117.5669 276° West 353 406 35,900 -1,020 Descending Oakland Center
02:28AM 37.4683 -117.6861 274° West 345 397 34,900 -1,020 Descending Oakland Center
02:29AM 37.4769 -117.8044 275° West 340 391 33,900 -1,020 Descending Oakland Center
02:30AM 37.4822 -117.9203 273° West 334 384 32,900 -960 Descending Oakland Center
02:31AM 37.4894 -118.0344 275° West 329 379 32,000 -480 Descending Oakland Center
02:32AM 37.4964 -118.1494 274° West 329 379 32,000 -420 Level Oakland Center
02:33AM 37.5036 -118.2622 275° West 325 374 31,200 -900 Descending Oakland Center
02:34AM 37.5097 -118.3717 274° West 316 364 30,200 -1,020 Descending Oakland Center
02:35AM 37.5153 -118.4792 274° West 309 356 29,200 -1,140 Descending Oakland Center
02:36AM 37.5225 -118.6100 274° West 311 358 28,000 -600 Descending Oakland Center
02:37AM 37.5289 -118.7181 274° West 311 358 28,000  Level Oakland Center
02:38AM 37.5431 -118.7994 282° West 301 346 28,000  Level Oakland Center
02:39AM 37.6072 -118.8828 314° West 314 361 28,000  Level Oakland Center
02:40AM 37.6725 -118.9631 316° Northwest 324 373 28,000  Level Oakland Center
02:41AM 37.7353 -119.0411 315° West 321 369 28,000  Level Oakland Center
02:42AM 37.7981 -119.1197 315° West 318 366 28,000  Level Oakland Center
02:43AM 37.8578 -119.2008 313° West 317 365 28,000  Level Oakland Center
02:44AM 37.9197 -119.2761 316° Northwest 309 356 28,000  Level Oakland Center
02:45AM 37.9686 -119.3567 308° West 309 356 28,000  Level Oakland Center
02:46AM 37.9394 -119.4806 253° West 305 351 28,000  Level Oakland Center
02:47AM 37.9178 -119.5847 255° West 306 352 28,000  Level Oakland Center
02:48AM 37.9003 -119.6872 258° West 300 345 28,000  Level Oakland Center
02:49AM 37.8764 -119.7908 254° West 303 349 28,000  Level Oakland Center
02:50AM 37.8547 -119.8939 255° West 304 350 28,000  Level Oakland Center
02:51AM 37.8319 -119.9981 255° West 309 356 28,000  Level Oakland Center
02:52AM 37.8111 -120.1011 256° West 304 350 28,000 -480 Level Oakland Center
02:53AM 37.7892 -120.2069 255° West 310 357 27,100 -960 Descending Oakland Center
02:54AM 37.7661 -120.3106 254° West 305 351 26,100 -600 Descending Oakland Center
02:55AM 37.7453 -120.4125 256° West 302 348 26,000 -60 Descending Oakland Center
02:56AM 37.7231 -120.5164 255° West 303 349 26,000  Level Oakland Center
02:57AM 37.7006 -120.6192 255° West 304 350 26,000 -420 Level Oakland Center
02:58AM 37.6833 -120.7000 255° West 304 350 25,300 -1,200 Descending Northern Cal TRACON
02:59AM 37.6667 -120.8000 258° West 306 352 24,000 -2,100 Descending Northern Cal TRACON
03:00AM 37.6333 -120.9000 247° West 322 371 21,100 -2,520 Descending Northern Cal TRACON
03:01AM 37.6167 -121.0167 260° West 314 361 19,000 -1,860 Descending Northern Cal TRACON
03:02AM 37.6167 -121.1167 270° West 304 350 17,200 -1,380 Descending Northern Cal TRACON
03:03AM 37.6000 -121.2167 258° West 279 321 16,200 -1,020 Descending Northern Cal TRACON
03:04AM 37.5833 -121.3167 258° West 275 316 15,200 -840 Descending Northern Cal TRACON
03:05AM 37.5833 -121.4000 270° West 248 285 14,600 -900 Descending Northern Cal TRACON
03:06AM 37.5833 -121.4833 270° West 216 249 13,500 -1,140 Descending Northern Cal TRACON
03:07AM 37.6167 -121.5500 302° West 212 244 12,400 -1,080 Descending Northern Cal TRACON
03:08AM 37.6167 -121.6167 270° West 207 238 11,400 -1,020 Descending Northern Cal TRACON
03:09AM 37.6333 -121.6833 288° West 204 235 10,300 -720 Descending Northern Cal TRACON
03:10AM 37.6500 -121.7667 284° West 210 242 10,000 -300 Descending Northern Cal TRACON
03:11AM 37.6667 -121.8333 288° West 220 253 9,800 -540 Descending Northern Cal TRACON
03:12AM 37.6667 -121.9000 270° West 220 253 9,000 -720 Descending Northern Cal TRACON
03:13AM 37.6744 -121.9239 292° West 220 253 9,000  Level Oakland Center
03:14AM 37.6294 -121.9692 219° Southwest 243 280 9,000  Level Oakland Center
03:14AM 37.5833 -121.9667 178° South 263 303 9,000  Level Northern Cal TRACON
03:15AM 37.5333 -121.9000 133° Southeast 252 290 9,000  Level Northern Cal TRACON
03:16AM 37.5167 -121.8333 107° East 240 276 9,000  Level Northern Cal TRACON
03:17AM 37.4833 -121.7667 122° Southeast 238 274 9,000  Level Northern Cal TRACON
03:18AM 37.4167 -121.7667 180° South 225 259 9,000  Level Northern Cal TRACON
03:19AM 37.4000 -121.8167 247° West 187 215 9,000 -360 Level Northern Cal TRACON
03:20AM 37.4000 -121.8833 270° West 182 209 8,400 -780 Descending Northern Cal TRACON
03:21AM 37.4333 -121.9333 310° West 179 206 7,600 -900 Descending Northern Cal TRACON
03:22AM 37.4500 -121.9833 293° West 167 192 6,600 -900 Descending Northern Cal TRACON
03:23AM 37.4833 -122.0333 310° West 176 203 5,800 -900 Descending Northern Cal TRACON
03:24AM 37.5000 -122.0833 293° West 172 198 4,900 -1,020 Descending Northern Cal TRACON
03:25AM 37.5167 -122.1500 288° West 178 205 3,800 -1,020 Descending Northern Cal TRACON
03:26AM 37.5292 -122.1642 318° Northwest 177 204 3,400 -900 Descending Oakland Center
03:27AM 37.5503 -122.2167 297° West 174 200 2,500 -840 Descending Oakland Center
03:28AM 37.5675 -122.2583 298° West 156 180 1,800 -660 Descending Oakland Center
03:29AM 37.5836 -122.2944 299° West 134 154 1,200 -660 Descending Oakland Center
03:30AM 37.5986 -122.3322 297° West 125 144 500 -720 Descending Oakland Center